Terminal Aerodrome Forecast
Issued by NWS

Home | Current Version | Previous Version | Graphics & Text | Print | Product List | Glossary On
Versions: 1 2 3 4 5 6 7 8 9 10 11 12 13 14 15 16 17 18 19 20 21 22 23 24
000
FTUS43 KICT 251240 AAA
TAFRSL
TAF AMD
KRSL 251240Z 2513/2612 34014G20KT P6SM SCT009 OVC015
      TEMPO 2513/2515 BKN009
     FM251800 35013KT P6SM SCT015 BKN025
     FM260000 04006KT P6SM SCT030=

USA.gov is the U.S. government's official web portal to all federal, state and local government web resources and services.